UAL353 KEWR-KLAX
Flight info
| Callsign | UAL353 |
|---|---|
| Flight time | N/A |
| Altitude | 38000 |
| Route | NEWEL J60 DANNR RAV J64 FWA EDENS WELKY Q90 DNERO ANJLL4 |
| Aircraft | B78X/H-SDE1E2E3FGHIJ2J3J4J5M1RWXY/LB1D1 |
Departure
| Time | 2026-04-21 01:03 |
|---|---|
| Airport | Newark Liberty International Airport (KEWR) |
Arrival
| Time | N/A |
|---|---|
| Airport | Los Angeles International Airport (KLAX) |
| Time | Latitude | Longitude | Altitude | Speed | Heading |
|---|---|---|---|---|---|
| 2026-04-21 00:39 | 40.69931 | -74.18019 | 27 ft | 0 kts | 166° |
| 2026-04-21 00:46 | 40.69938 | -74.18022 | 27 ft | 2 kts | 163° |
| 2026-04-21 00:47 | 40.69954 | -74.18028 | 27 ft | 2 kts | 163° |
| 2026-04-21 00:47 | 40.69970 | -74.18034 | 25 ft | 2 kts | 161° |
| 2026-04-21 00:47 | 40.69985 | -74.18042 | 26 ft | 2 kts | 155° |
| 2026-04-21 00:47 | 40.69999 | -74.18054 | 27 ft | 2 kts | 132° |
| 2026-04-21 00:48 | 40.70005 | -74.18071 | 27 ft | 1 kts | 97° |
| 2026-04-21 00:48 | 40.70005 | -74.18073 | 26 ft | 0 kts | 96° |
| 2026-04-21 00:50 | 40.70005 | -74.18071 | 27 ft | 0 kts | 96° |
| 2026-04-21 00:50 | 40.70005 | -74.18063 | 27 ft | 2 kts | 97° |
| 2026-04-21 00:51 | 40.70002 | -74.18033 | 28 ft | 5 kts | 96° |
| 2026-04-21 00:51 | 40.69998 | -74.17979 | 28 ft | 7 kts | 95° |
| 2026-04-21 00:51 | 40.69993 | -74.17907 | 28 ft | 9 kts | 95° |
| 2026-04-21 00:51 | 40.69989 | -74.17830 | 28 ft | 7 kts | 94° |
| 2026-04-21 00:52 | 40.69985 | -74.17774 | 29 ft | 5 kts | 94° |
| 2026-04-21 00:52 | 40.69982 | -74.17721 | 30 ft | 7 kts | 95° |
| 2026-04-21 00:52 | 40.69978 | -74.17651 | 31 ft | 9 kts | 95° |
| 2026-04-21 00:52 | 40.69972 | -74.17554 | 30 ft | 12 kts | 95° |
| 2026-04-21 00:53 | 40.69959 | -74.17429 | 29 ft | 14 kts | 103° |
| 2026-04-21 00:53 | 40.69922 | -74.17321 | 28 ft | 13 kts | 122° |
| 2026-04-21 00:53 | 40.69865 | -74.17231 | 27 ft | 13 kts | 133° |
| 2026-04-21 00:53 | 40.69794 | -74.17142 | 30 ft | 15 kts | 143° |
| 2026-04-21 00:54 | 40.69702 | -74.17058 | 30 ft | 16 kts | 152° |
| 2026-04-21 00:54 | 40.69595 | -74.17007 | 29 ft | 17 kts | 162° |
| 2026-04-21 00:54 | 40.69482 | -74.16976 | 31 ft | 16 kts | 174° |
| 2026-04-21 00:54 | 40.69371 | -74.16977 | 28 ft | 16 kts | 186° |
| 2026-04-21 00:55 | 40.69258 | -74.17013 | 26 ft | 17 kts | 202° |
| 2026-04-21 00:55 | 40.69149 | -74.17080 | 27 ft | 17 kts | 206° |
| 2026-04-21 00:55 | 40.69037 | -74.17152 | 23 ft | 18 kts | 205° |
| 2026-04-21 00:55 | 40.68928 | -74.17222 | 31 ft | 16 kts | 206° |
| 2026-04-21 00:56 | 40.68830 | -74.17284 | 27 ft | 15 kts | 205° |
| 2026-04-21 00:56 | 40.68738 | -74.17343 | 28 ft | 14 kts | 207° |
| 2026-04-21 00:56 | 40.68657 | -74.17397 | 31 ft | 12 kts | 207° |
| 2026-04-21 00:56 | 40.68578 | -74.17445 | 29 ft | 14 kts | 205° |
| 2026-04-21 00:57 | 40.68473 | -74.17510 | 28 ft | 19 kts | 206° |
| 2026-04-21 00:57 | 40.68355 | -74.17587 | 31 ft | 20 kts | 206° |
| 2026-04-21 00:57 | 40.68224 | -74.17671 | 26 ft | 20 kts | 205° |
| 2026-04-21 00:57 | 40.68097 | -74.17750 | 26 ft | 20 kts | 206° |
| 2026-04-21 00:58 | 40.67969 | -74.17834 | 28 ft | 20 kts | 207° |
| 2026-04-21 00:58 | 40.67869 | -74.17897 | 30 ft | 15 kts | 205° |
| 2026-04-21 00:58 | 40.67769 | -74.17961 | 29 ft | 17 kts | 205° |
| 2026-04-21 00:58 | 40.67687 | -74.18011 | 31 ft | 11 kts | 205° |
| 2026-04-21 00:59 | 40.67630 | -74.18045 | 28 ft | 4 kts | 200° |
| 2026-04-21 00:59 | 40.67620 | -74.18046 | 28 ft | 0 kts | 177° |
| 2026-04-21 01:01 | 40.67606 | -74.18040 | 28 ft | 5 kts | 156° |
| 2026-04-21 01:01 | 40.67579 | -74.18010 | 29 ft | 5 kts | 128° |
| 2026-04-21 01:01 | 40.67562 | -74.17969 | 28 ft | 5 kts | 115° |
| 2026-04-21 01:01 | 40.67558 | -74.17939 | 28 ft | 1 kts | 78° |
| 2026-04-21 01:02 | 40.67568 | -74.17924 | 30 ft | 4 kts | 39° |
| 2026-04-21 01:02 | 40.67620 | -74.17888 | 30 ft | 16 kts | 27° |
| 2026-04-21 01:02 | 40.67884 | -74.17724 | 21 ft | 76 kts | 25° |
| 2026-04-21 01:02 | 40.68570 | -74.17288 | 29 ft | 141 kts | 26° |
| 2026-04-21 01:03 | 40.69551 | -74.16666 | 500 ft | 157 kts | 17° |
| 2026-04-21 01:03 | 40.70541 | -74.15964 | 1363 ft | 175 kts | 36° |
| 2026-04-21 01:03 | 40.71379 | -74.14740 | 2137 ft | 189 kts | 42° |
| 2026-04-21 01:03 | 40.72400 | -74.13422 | 2492 ft | 222 kts | 39° |
| 2026-04-21 01:04 | 40.73625 | -74.11984 | 3105 ft | 243 kts | 38° |
| 2026-04-21 01:04 | 40.74884 | -74.10508 | 4272 ft | 244 kts | 38° |
| 2026-04-21 01:04 | 40.75754 | -74.09511 | 4918 ft | 247 kts | 34° |
| 2026-04-21 01:04 | 40.77312 | -74.08786 | 5905 ft | 244 kts | 357° |
| 2026-04-21 01:05 | 40.78897 | -74.09519 | 6829 ft | 248 kts | 319° |
| 2026-04-21 01:05 | 40.79808 | -74.11466 | 7771 ft | 254 kts | 283° |
| 2026-04-21 01:05 | 40.79924 | -74.13811 | 8694 ft | 259 kts | 270° |
| 2026-04-21 01:05 | 40.79833 | -74.16207 | 9672 ft | 264 kts | 268° |
| 2026-04-21 01:06 | 40.79701 | -74.18665 | 10028 ft | 278 kts | 268° |